Time;durP1;ratioP1;P1;durP2;ratioP2;P2;SDS_P1;SDS_P2;PMS_P1;PMS_P2;Temp;Humidity;BMP_temperature;BMP_pressure;BME280_temperature;BME280_humidity;BME280_pressure;Samples;Min_cycle;Max_cycle;Signal;HPM_P1;HPM_P2
2023/03/01 00:02:06;;;;;;;52.72;17.85;;;-2.30;99.90;;;;;;4929210;29;20038;-70
2023/03/01 00:04:32;;;;;;;48.63;17.23;;;-2.40;99.90;;;;;;4934038;29;20060;-71
2023/03/01 00:06:58;;;;;;;49.13;17.58;;;-2.50;99.90;;;;;;4919742;29;20042;-72
2023/03/01 00:09:23;;;;;;;46.10;16.48;;;-2.60;99.90;;;;;;4924588;29;20054;-72
2023/03/01 00:11:49;;;;;;;48.08;17.65;;;-2.70;99.90;;;;;;4916008;29;20040;-71
2023/03/01 00:14:17;;;;;;;45.22;16.17;;;-2.70;99.90;;;;;;4925310;29;20082;-72
2023/03/01 00:16:44;;;;;;;48.67;16.83;;;-2.80;99.90;;;;;;4940226;29;20123;-72
2023/03/01 00:19:14;;;;;;;46.58;17.20;;;-2.80;99.90;;;;;;4917060;29;20521;-72
2023/03/01 00:21:40;;;;;;;48.30;17.10;;;-2.80;99.90;;;;;;4915608;29;20039;-72
2023/03/01 00:24:06;;;;;;;50.88;16.92;;;-2.70;99.90;;;;;;4931698;29;20059;-72
2023/03/01 00:26:32;;;;;;;47.00;16.63;;;-2.70;99.90;;;;;;4933762;29;20835;-72
2023/03/01 00:28:58;;;;;;;43.92;16.27;;;-2.70;99.90;;;;;;4936408;29;20110;-72
2023/03/01 00:31:27;;;;;;;45.97;16.77;;;-2.70;99.90;;;;;;4932926;29;20426;-71
2023/03/01 00:33:57;;;;;;;45.72;17.83;;;-2.80;99.90;;;;;;4947740;29;20543;-72
2023/03/01 00:36:27;;;;;;;44.03;16.33;;;-2.70;99.90;;;;;;4953073;29;20577;-72
2023/03/01 00:38:53;;;;;;;47.60;16.52;;;-2.60;99.90;;;;;;4937691;29;20042;-72
2023/03/01 00:41:20;;;;;;;47.28;17.17;;;-2.50;99.90;;;;;;4933737;29;20027;-72
2023/03/01 00:43:46;;;;;;;48.58;16.35;;;-2.50;99.90;;;;;;4934023;29;20395;-72
2023/03/01 00:46:14;;;;;;;43.22;15.90;;;-2.50;99.90;;;;;;4933480;29;20036;-72
2023/03/01 00:48:40;;;;;;;43.20;16.15;;;-2.60;99.90;;;;;;4945346;29;20046;-72
2023/03/01 00:51:15;;;;;;;44.17;16.02;;;-2.60;99.90;;;;;;4951156;29;20034;-72
2023/03/01 00:53:41;;;;;;;48.90;17.33;;;-2.50;99.90;;;;;;4952111;29;20102;-72
2023/03/01 00:56:09;;;;;;;44.03;16.75;;;-2.50;99.90;;;;;;4935782;29;20096;-72
2023/03/01 00:58:36;;;;;;;49.05;17.02;;;-2.40;99.90;;;;;;4914357;29;20111;-72
2023/03/01 01:01:16;;;;;;;46.47;16.52;;;-2.30;99.90;;;;;;4934021;29;20031;-72
2023/03/01 01:03:56;;;;;;;48.83;17.33;;;-2.10;99.90;;;;;;4952812;29;20031;-72
2023/03/01 01:06:28;;;;;;;48.63;17.05;;;-2.00;99.90;;;;;;4949307;28;20047;-72
2023/03/01 01:08:54;;;;;;;49.63;17.77;;;-1.90;99.90;;;;;;4943141;29;20172;-72
2023/03/01 01:11:22;;;;;;;49.67;17.55;;;-1.80;99.90;;;;;;4933160;29;20032;-72
2023/03/01 01:13:49;;;;;;;54.33;17.70;;;-1.80;99.90;;;;;;4917791;29;20040;-72
2023/03/01 01:16:16;;;;;;;52.45;18.17;;;-1.70;99.90;;;;;;4929707;29;20765;-70
2023/03/01 01:18:42;;;;;;;51.28;17.73;;;-1.50;99.90;;;;;;4947185;29;20039;-72
2023/03/01 01:21:11;;;;;;;48.85;17.90;;;-1.40;99.90;;;;;;4952852;29;20030;-70
2023/03/01 01:23:39;;;;;;;48.08;17.75;;;-1.40;99.90;;;;;;4949689;29;20031;-72
2023/03/01 01:26:06;;;;;;;53.47;17.70;;;-1.30;99.90;;;;;;4952624;29;20531;-71
2023/03/01 01:28:32;;;;;;;46.83;17.73;;;-1.20;99.90;;;;;;4937891;29;20047;-72
2023/03/01 01:30:58;;;;;;;48.58;17.85;;;-1.20;99.90;;;;;;4932500;29;20027;-72
2023/03/01 01:33:23;;;;;;;47.40;16.48;;;-1.20;99.90;;;;;;4934608;29;20433;-72
2023/03/01 01:35:49;;;;;;;45.33;16.77;;;-1.10;99.90;;;;;;4932098;29;20063;-72
2023/03/01 01:38:14;;;;;;;48.03;18.20;;;-1.10;99.90;;;;;;4934079;29;20091;-70
2023/03/01 01:40:47;;;;;;;47.80;17.25;;;-1.10;99.90;;;;;;4928623;29;20071;-72
2023/03/01 01:43:33;;;;;;;50.97;17.50;;;-1.10;99.90;;;;;;4927877;29;20123;-72
2023/03/01 01:46:04;;;;;;;45.05;16.70;;;-1.10;99.90;;;;;;4942634;29;20036;-72
2023/03/01 01:48:46;;;;;;;52.35;18.33;;;-1.10;99.90;;;;;;4938883;29;20078;-72
2023/03/01 01:51:18;;;;;;;50.20;16.80;;;-1.10;99.90;;;;;;4922442;29;20598;-72
2023/03/01 01:53:47;;;;;;;52.58;17.35;;;-1.00;99.90;;;;;;4932842;29;20028;-72
2023/03/01 01:56:15;;;;;;;45.47;16.25;;;-1.10;99.90;;;;;;4939990;29;20670;-72
2023/03/01 01:58:43;;;;;;;52.60;17.63;;;-1.00;99.90;;;;;;4950163;29;20711;-72
2023/03/01 02:01:09;;;;;;;48.58;17.73;;;-1.00;99.90;;;;;;4935839;29;20118;-72
2023/03/01 02:03:41;;;;;;;52.25;18.13;;;-1.00;99.90;;;;;;4950029;29;20042;-72
2023/03/01 02:06:18;;;;;;;46.90;17.17;;;-1.00;99.90;;;;;;4949836;29;20035;-72
2023/03/01 02:08:46;;;;;;;45.45;16.17;;;-1.00;99.90;;;;;;4936811;29;20103;-72
2023/03/01 02:11:14;;;;;;;61.70;17.67;;;-1.00;99.90;;;;;;4915524;29;20036;-72
2023/03/01 02:13:41;;;;;;;46.05;15.98;;;-1.00;99.90;;;;;;4921223;29;20036;-72
2023/03/01 02:16:14;;;;;;;45.80;17.13;;;-1.00;99.90;;;;;;4919768;29;20039;-72
2023/03/01 02:18:41;;;;;;;50.97;18.02;;;-1.00;99.90;;;;;;4935237;29;20028;-72
2023/03/01 02:21:30;;;;;;;50.88;19.27;;;-1.00;99.90;;;;;;4930670;29;20050;-72
2023/03/01 02:23:57;;;;;;;49.05;16.92;;;-1.00;99.90;;;;;;4946314;29;20130;-72
2023/03/01 02:26:42;;;;;;;53.17;18.17;;;-1.00;99.90;;;;;;4932714;29;20052;-72
2023/03/01 02:29:07;;;;;;;48.42;16.38;;;-0.90;99.90;;;;;;4931883;29;20038;-72
2023/03/01 02:31:42;;;;;;;48.55;17.00;;;-0.90;99.90;;;;;;4926294;29;20028;-72
2023/03/01 02:34:19;;;;;;;45.90;16.48;;;-0.90;99.90;;;;;;4932507;29;20507;-72
2023/03/01 02:36:51;;;;;;;47.15;17.75;;;-0.90;99.90;;;;;;4931484;29;20467;-72
2023/03/01 02:39:31;;;;;;;49.33;18.27;;;-0.90;99.90;;;;;;4931721;29;20050;-72
2023/03/01 02:41:58;;;;;;;49.42;17.60;;;-0.90;99.90;;;;;;4931601;29;20020;-72
2023/03/01 02:44:24;;;;;;;48.67;17.83;;;-0.90;99.90;;;;;;4931453;29;20135;-71
2023/03/01 02:46:52;;;;;;;49.25;17.60;;;-0.90;99.90;;;;;;4931044;29;20127;-72
2023/03/01 02:49:22;;;;;;;47.13;17.45;;;-0.90;99.90;;;;;;4925034;29;20036;-72
2023/03/01 02:52:22;;;;;;;48.33;17.23;;;-0.90;99.90;;;;;;4926443;29;20031;-72
2023/03/01 02:54:58;;;;;;;49.57;17.93;;;-0.90;99.90;;;;;;4930746;29;20453;-72
2023/03/01 02:57:27;;;;;;;48.15;17.13;;;-0.90;99.90;;;;;;4912687;29;20276;-72
2023/03/01 02:59:54;;;;;;;51.40;18.00;;;-0.90;99.90;;;;;;4926541;29;20122;-72
2023/03/01 03:02:35;;;;;;;51.63;18.02;;;-0.90;99.90;;;;;;4929955;29;20481;-72
2023/03/01 03:05:17;;;;;;;55.83;18.98;;;-0.90;99.90;;;;;;4931782;29;20039;-72
2023/03/01 03:07:45;;;;;;;54.55;18.15;;;-0.90;99.90;;;;;;4931017;29;20748;-72
2023/03/01 03:10:19;;;;;;;55.92;18.98;;;-0.90;99.90;;;;;;4938903;29;20043;-72
2023/03/01 03:12:48;;;;;;;47.22;18.10;;;-0.80;99.90;;;;;;4950072;29;20034;-72
2023/03/01 03:15:14;;;;;;;54.43;19.03;;;-0.80;99.90;;;;;;4947938;29;20038;-72
2023/03/01 03:17:42;;;;;;;54.30;17.85;;;-0.90;99.90;;;;;;4927654;29;20035;-72
2023/03/01 03:20:11;;;;;;;51.40;17.92;;;-0.80;99.90;;;;;;4937801;29;20103;-71
2023/03/01 03:22:41;;;;;;;51.13;19.40;;;-0.80;99.90;;;;;;4919484;29;20099;-72
2023/03/01 03:25:10;;;;;;;52.17;18.02;;;-0.80;99.90;;;;;;4932912;29;20476;-72
2023/03/01 03:27:41;;;;;;;49.90;17.65;;;-0.70;99.90;;;;;;4914242;29;20082;-72
2023/03/01 03:30:11;;;;;;;49.75;17.58;;;-0.70;99.90;;;;;;4919026;29;20036;-72
2023/03/01 03:32:38;;;;;;;44.95;16.67;;;-0.70;99.90;;;;;;4940732;29;20044;-72
2023/03/01 03:35:09;;;;;;;50.92;18.67;;;-0.80;99.90;;;;;;4931414;29;20207;-72
2023/03/01 03:38:01;;;;;;;51.80;17.83;;;-0.70;99.90;;;;;;4944374;29;20027;-72
2023/03/01 03:40:47;;;;;;;50.65;17.67;;;-0.70;99.90;;;;;;4928285;29;20066;-72
2023/03/01 03:43:20;;;;;;;51.50;17.90;;;-0.80;99.90;;;;;;4943178;29;20051;-72
2023/03/01 03:45:46;;;;;;;53.67;18.70;;;-0.80;99.90;;;;;;4935492;29;20599;-72
2023/03/01 03:48:12;;;;;;;48.13;17.20;;;-0.70;99.90;;;;;;4923084;29;20548;-72
2023/03/01 03:50:41;;;;;;;46.75;17.83;;;-0.70;99.90;;;;;;4928981;29;20103;-72
2023/03/01 03:53:10;;;;;;;49.92;18.60;;;-0.70;99.90;;;;;;4912510;29;20082;-72
2023/03/01 03:55:38;;;;;;;53.17;17.95;;;-0.70;99.90;;;;;;4910915;29;20091;-72
2023/03/01 03:58:09;;;;;;;51.63;18.48;;;-0.70;99.90;;;;;;4949853;29;20153;-72
2023/03/01 04:00:36;;;;;;;;;;;-0.70;99.90;;;;;;4929984;29;20036;-75
2023/03/01 04:03:02;;;;;;;43.95;16.25;;;-0.70;99.90;;;;;;4940258;29;19941;-71
2023/03/01 04:05:28;;;;;;;47.47;17.98;;;-0.70;99.90;;;;;;4939351;29;20035;-71
2023/03/01 04:08:00;;;;;;;49.00;17.23;;;-0.70;99.90;;;;;;4947590;29;20031;-71
2023/03/01 04:10:32;;;;;;;48.05;18.17;;;-0.70;99.90;;;;;;4931933;29;20031;-71
2023/03/01 04:13:00;;;;;;;49.80;17.90;;;-0.70;99.90;;;;;;4932363;29;20039;-72
2023/03/01 04:15:26;;;;;;;49.78;17.40;;;-0.70;99.90;;;;;;4933034;29;20031;-71
2023/03/01 04:17:54;;;;;;;51.05;18.67;;;-0.70;99.90;;;;;;4920660;29;20044;-71
2023/03/01 04:20:26;;;;;;;51.83;18.48;;;-0.70;99.90;;;;;;4912128;29;20032;-71
2023/03/01 04:23:15;;;;;;;52.17;17.70;;;-0.70;99.90;;;;;;4911015;29;20545;-71
2023/03/01 04:25:54;;;;;;;52.38;17.38;;;-0.70;99.90;;;;;;4910828;29;20437;-70
2023/03/01 04:28:26;;;;;;;51.38;18.38;;;-0.70;99.90;;;;;;4924110;29;20070;-71
2023/03/01 04:30:53;;;;;;;51.22;18.08;;;-0.70;99.90;;;;;;4928615;29;20087;-71
2023/03/01 04:33:19;;;;;;;54.97;18.60;;;-0.70;99.90;;;;;;4929729;29;20445;-71
2023/03/01 04:35:45;;;;;;;49.83;19.38;;;-0.70;99.90;;;;;;4933918;29;20055;-72
2023/03/01 04:38:10;;;;;;;58.28;21.40;;;-0.70;99.90;;;;;;4949768;29;20424;-71
2023/03/01 04:40:37;;;;;;;52.47;19.75;;;-0.60;99.90;;;;;;4948983;28;20031;-71
2023/03/01 04:43:03;;;;;;;58.47;20.85;;;-0.70;99.90;;;;;;4942323;29;20039;-71
2023/03/01 04:45:29;;;;;;;55.22;22.13;;;-0.70;99.90;;;;;;4934190;29;20189;-71
2023/03/01 04:47:57;;;;;;;50.75;19.33;;;-0.70;99.90;;;;;;4934575;29;20520;-72
2023/03/01 04:50:26;;;;;;;54.97;20.35;;;-0.70;99.90;;;;;;4935050;29;20032;-72
2023/03/01 04:52:52;;;;;;;56.00;20.45;;;-0.70;99.90;;;;;;4952604;29;20915;-72
2023/03/01 04:55:18;;;;;;;59.35;20.02;;;-0.70;99.90;;;;;;4929754;29;20086;-71
2023/03/01 04:57:43;;;;;;;54.83;19.92;;;-0.70;99.90;;;;;;4917966;29;20481;-71
2023/03/01 05:00:20;;;;;;;54.35;20.38;;;-0.70;99.90;;;;;;4931953;29;20095;-71
2023/03/01 05:02:53;;;;;;;54.58;20.38;;;-0.70;99.90;;;;;;4932576;29;20478;-71
2023/03/01 05:05:33;;;;;;;47.72;17.75;;;-0.70;99.90;;;;;;4932361;29;20040;-71
2023/03/01 05:08:01;;;;;;;54.00;20.05;;;-0.70;99.90;;;;;;4945006;29;20146;-72
2023/03/01 05:10:29;;;;;;;48.78;17.65;;;-0.70;99.90;;;;;;4934922;29;20038;-71
2023/03/01 05:12:57;;;;;;;51.90;19.33;;;-0.70;99.90;;;;;;4949940;29;20035;-71
2023/03/01 05:15:26;;;;;;;54.50;19.17;;;-0.70;99.90;;;;;;4949824;29;20037;-71
2023/03/01 05:17:53;;;;;;;54.08;20.20;;;-0.70;99.90;;;;;;4934509;29;20641;-72
2023/03/01 05:20:22;;;;;;;52.83;19.48;;;-0.70;99.90;;;;;;4952147;29;20385;-71
2023/03/01 05:22:49;;;;;;;56.15;20.08;;;-0.60;99.90;;;;;;4946148;29;20114;-71
2023/03/01 05:25:14;;;;;;;51.05;19.67;;;-0.60;99.90;;;;;;4948690;29;20039;-70
2023/03/01 05:27:40;;;;;;;50.97;18.85;;;-0.60;99.90;;;;;;4933406;29;20523;-70
2023/03/01 05:30:16;;;;;;;55.22;20.23;;;-0.60;99.90;;;;;;4933430;29;20043;-71
2023/03/01 05:32:48;;;;;;;56.22;19.63;;;-0.50;99.90;;;;;;4931930;29;20054;-71
2023/03/01 05:35:16;;;;;;;53.67;20.00;;;-0.60;99.90;;;;;;4933127;29;20436;-70
2023/03/01 05:37:47;;;;;;;52.45;18.95;;;-0.60;99.90;;;;;;4932167;29;20054;-70
2023/03/01 05:40:15;;;;;;;56.38;20.02;;;-0.60;99.90;;;;;;4948488;29;20035;-71
2023/03/01 05:42:56;;;;;;;54.00;19.48;;;-0.60;99.90;;;;;;4949996;29;20039;-70
2023/03/01 05:45:23;;;;;;;56.63;20.70;;;-0.60;99.90;;;;;;4948141;29;20499;-70
2023/03/01 05:47:50;;;;;;;54.42;20.58;;;-0.60;99.90;;;;;;4932550;29;20035;-70
2023/03/01 05:50:20;;;;;;;55.30;20.20;;;-0.70;99.90;;;;;;4934614;29;20039;-71
2023/03/01 05:52:48;;;;;;;60.33;20.25;;;-0.70;99.90;;;;;;4931438;29;20028;-70
2023/03/01 05:55:14;;;;;;;53.30;19.50;;;-0.80;99.90;;;;;;4937662;29;20047;-70
2023/03/01 05:57:40;;;;;;;57.03;19.73;;;-0.80;99.90;;;;;;4950331;29;20459;-70
2023/03/01 06:00:10;;;;;;;50.50;19.33;;;-0.90;99.90;;;;;;4951969;29;20040;-70
2023/03/01 06:02:35;;;;;;;53.97;19.48;;;-1.00;99.90;;;;;;4943328;29;20361;-70
2023/03/01 06:05:05;;;;;;;54.72;18.95;;;-1.00;99.90;;;;;;4944014;29;20094;-71
2023/03/01 06:07:31;;;;;;;50.60;19.02;;;-1.00;99.90;;;;;;4931211;29;20032;-70
2023/03/01 06:09:57;;;;;;;60.63;20.38;;;-1.10;99.90;;;;;;4937538;29;20027;-71
2023/03/01 06:12:22;;;;;;;55.33;20.23;;;-1.10;99.90;;;;;;4949370;29;20086;-72
2023/03/01 06:14:48;;;;;;;62.50;21.40;;;-1.20;99.90;;;;;;4931206;29;20031;-72
2023/03/01 06:17:14;;;;;;;50.97;19.38;;;-1.20;99.90;;;;;;4935967;29;20039;-71
2023/03/01 06:19:40;;;;;;;55.60;19.55;;;-1.20;99.90;;;;;;4934244;29;20703;-71
2023/03/01 06:22:05;;;;;;;56.50;20.40;;;-1.30;99.90;;;;;;4931626;29;20412;-71
2023/03/01 06:24:31;;;;;;;63.78;21.30;;;-1.30;99.90;;;;;;4931477;29;20048;-71
2023/03/01 06:26:57;;;;;;;60.40;21.05;;;-1.30;99.90;;;;;;4910103;29;20064;-71
2023/03/01 06:29:22;;;;;;;58.10;20.45;;;-1.30;99.90;;;;;;4912591;29;20252;-72
2023/03/01 06:31:48;;;;;;;59.20;20.67;;;-1.30;99.90;;;;;;4882382;29;20036;-71
2023/03/01 06:34:14;;;;;;;61.38;19.88;;;-1.30;99.90;;;;;;4895066;29;20065;-71
2023/03/01 06:36:40;;;;;;;62.80;21.42;;;-1.30;99.90;;;;;;4910933;29;20032;-71
2023/03/01 06:39:09;;;;;;;60.67;19.98;;;-1.30;99.90;;;;;;4911020;29;20383;-71
2023/03/01 06:41:35;;;;;;;62.22;21.58;;;-1.30;99.90;;;;;;4894068;29;20588;-71
2023/03/01 06:44:00;;;;;;;52.28;19.33;;;-1.30;99.90;;;;;;4906838;29;20062;-71
2023/03/01 06:46:26;;;;;;;55.70;19.63;;;-1.30;99.90;;;;;;4911656;29;20036;-71
2023/03/01 06:48:51;;;;;;;62.67;20.30;;;-1.40;99.90;;;;;;4912607;29;20451;-71
2023/03/01 06:51:17;;;;;;;56.03;19.00;;;-1.30;99.90;;;;;;4910508;29;20095;-71
2023/03/01 06:53:43;;;;;;;53.83;18.92;;;-1.40;99.90;;;;;;4912397;29;20157;-71
2023/03/01 06:56:08;;;;;;;62.70;20.55;;;-1.30;99.90;;;;;;4910708;29;20229;-71
2023/03/01 06:58:34;;;;;;;53.45;18.60;;;-1.30;99.90;;;;;;4912087;29;20036;-71
2023/03/01 07:00:59;;;;;;;61.75;20.73;;;-1.30;99.90;;;;;;4913476;29;20044;-71
2023/03/01 07:03:25;;;;;;;52.63;19.10;;;-1.30;99.90;;;;;;4894740;29;20044;-71
2023/03/01 07:05:52;;;;;;;59.53;20.02;;;-1.30;99.90;;;;;;4913836;29;20036;-71
2023/03/01 07:08:18;;;;;;;60.35;21.02;;;-1.30;99.90;;;;;;4930626;29;20035;-71
2023/03/01 07:10:44;;;;;;;54.67;19.38;;;-1.20;99.90;;;;;;4913643;29;20040;-71
2023/03/01 07:13:09;;;;;;;66.40;22.02;;;-1.10;99.90;;;;;;4911916;29;20043;-71
2023/03/01 07:15:35;;;;;;;55.85;19.20;;;-1.10;99.90;;;;;;4884909;29;20038;-71
2023/03/01 07:18:01;;;;;;;61.58;23.20;;;-1.20;99.90;;;;;;4906522;29;20186;-73
2023/03/01 07:20:27;;;;;;;61.03;21.73;;;-1.20;99.90;;;;;;4911185;29;20036;-71
2023/03/01 07:22:54;;;;;;;64.60;25.25;;;-1.20;99.90;;;;;;4894503;29;20485;-70
2023/03/01 07:25:19;;;;;;;57.85;19.80;;;-1.20;99.90;;;;;;4911893;29;20036;-70
2023/03/01 07:27:50;;;;;;;59.95;22.92;;;-1.10;99.90;;;;;;4927892;29;20066;-71
2023/03/01 07:30:16;;;;;;;55.72;21.17;;;-1.10;99.90;;;;;;4928960;29;20032;-70
2023/03/01 07:32:42;;;;;;;55.50;18.88;;;-1.10;99.90;;;;;;4930079;29;20146;-73
2023/03/01 07:35:08;;;;;;;58.58;19.88;;;-1.10;99.90;;;;;;4928391;29;20121;-73
2023/03/01 07:37:33;;;;;;;67.30;22.30;;;-1.00;99.90;;;;;;4930879;29;20477;-73
2023/03/01 07:39:59;;;;;;;63.63;21.42;;;-0.90;99.90;;;;;;4929379;29;20071;-73
2023/03/01 07:42:24;;;;;;;53.53;17.92;;;-0.90;99.90;;;;;;4943761;29;20074;-73
2023/03/01 07:44:50;;;;;;;50.70;19.42;;;-0.90;99.90;;;;;;4928554;29;20039;-72
2023/03/01 07:47:16;;;;;;;65.90;22.80;;;-0.90;99.90;;;;;;4913312;29;20053;-72
2023/03/01 07:49:41;;;;;;;66.28;22.10;;;-0.90;99.90;;;;;;4932777;29;20097;-72
2023/03/01 07:52:10;;;;;;;69.20;22.55;;;-0.80;99.90;;;;;;4930840;29;20420;-72
2023/03/01 07:54:36;;;;;;;53.65;18.58;;;-0.80;99.90;;;;;;4934124;29;20035;-72
2023/03/01 07:57:01;;;;;;;59.08;20.10;;;-0.70;99.90;;;;;;4930913;29;20031;-72
2023/03/01 07:59:28;;;;;;;58.63;19.98;;;-0.60;99.90;;;;;;4938870;29;20031;-72
2023/03/01 08:01:55;;;;;;;57.08;19.63;;;-0.60;99.90;;;;;;4924180;29;20050;-71
2023/03/01 08:04:21;;;;;;;51.40;19.55;;;-0.50;99.90;;;;;;4929919;29;20115;-70
2023/03/01 08:06:47;;;;;;;59.22;18.55;;;-0.50;99.90;;;;;;4935907;29;20122;-71
2023/03/01 08:09:13;;;;;;;54.50;19.00;;;-0.60;99.90;;;;;;4923836;29;20024;-71
2023/03/01 08:11:38;;;;;;;57.00;19.15;;;-0.50;99.90;;;;;;4930707;29;20059;-70
2023/03/01 08:14:05;;;;;;;61.25;19.73;;;-0.40;99.90;;;;;;4927597;29;20622;-70
2023/03/01 08:16:32;;;;;;;57.92;19.35;;;-0.30;99.90;;;;;;4950762;29;20109;-71
2023/03/01 08:19:01;;;;;;;56.03;20.25;;;-0.20;99.90;;;;;;4952887;29;20540;-70
2023/03/01 08:21:27;;;;;;;55.45;18.35;;;-0.10;99.90;;;;;;4922228;29;20450;-70
2023/03/01 08:23:52;;;;;;;56.58;19.38;;;-0.10;99.90;;;;;;4915164;29;20126;-70
2023/03/01 08:26:21;;;;;;;54.28;19.23;;;-0.10;99.90;;;;;;4931027;29;20134;-70
2023/03/01 08:28:48;;;;;;;50.95;17.92;;;0.00;99.90;;;;;;4931871;29;20036;-70
2023/03/01 08:31:23;;;;;;;57.20;19.52;;;0.00;99.90;;;;;;4931633;29;20472;-69
2023/03/01 08:33:56;;;;;;;53.67;18.00;;;0.00;99.90;;;;;;4932291;29;20780;-69
2023/03/01 08:36:32;;;;;;;59.78;18.67;;;0.20;99.90;;;;;;4932649;29;20054;-69
2023/03/01 08:38:58;;;;;;;47.92;18.48;;;0.20;99.90;;;;;;4936664;29;20036;-69
2023/03/01 08:41:24;;;;;;;57.58;19.27;;;0.20;99.90;;;;;;4933570;29;20720;-69
2023/03/01 08:43:50;;;;;;;59.63;20.33;;;0.40;99.90;;;;;;4915446;29;20054;-70
2023/03/01 08:46:16;;;;;;;56.03;19.08;;;0.50;99.90;;;;;;4931225;29;20465;-69
2023/03/01 08:48:44;;;;;;;60.80;20.77;;;0.60;99.90;;;;;;4934024;29;20115;-70
2023/03/01 08:51:15;;;;;;;59.88;20.55;;;0.70;99.90;;;;;;4933362;29;20036;-70
2023/03/01 08:53:41;;;;;;;58.47;21.05;;;0.80;99.90;;;;;;4933917;29;20040;-71
2023/03/01 08:56:08;;;;;;;57.63;20.60;;;1.00;99.90;;;;;;4942796;29;20042;-71
2023/03/01 08:58:34;;;;;;;60.80;21.13;;;1.20;99.90;;;;;;4947902;29;20032;-71
2023/03/01 09:01:00;;;;;;;52.42;20.02;;;1.40;99.90;;;;;;4932001;29;20041;-70
2023/03/01 09:03:26;;;;;;;55.28;19.77;;;1.50;99.90;;;;;;4933849;29;20481;-71
2023/03/01 09:05:52;;;;;;;54.85;20.05;;;1.50;99.90;;;;;;4933271;29;20041;-71
2023/03/01 09:08:18;;;;;;;58.88;21.20;;;1.60;99.90;;;;;;4933930;29;20432;-71
2023/03/01 09:10:44;;;;;;;61.65;20.95;;;1.90;99.90;;;;;;4933619;29;20059;-71
2023/03/01 09:13:09;;;;;;;56.85;20.70;;;2.00;99.90;;;;;;4932717;29;20050;-72
2023/03/01 09:15:38;;;;;;;58.17;19.90;;;2.00;99.90;;;;;;4933899;29;20044;-71
2023/03/01 09:18:04;;;;;;;53.28;19.05;;;2.20;99.90;;;;;;4932978;29;20028;-71
2023/03/01 09:20:30;;;;;;;53.22;19.40;;;2.30;99.90;;;;;;4933865;29;20074;-71
2023/03/01 09:22:56;;;;;;;49.08;19.65;;;2.40;99.90;;;;;;4932666;29;20059;-71
2023/03/01 09:25:22;;;;;;;49.10;18.98;;;2.60;99.90;;;;;;4933669;29;20063;-71
2023/03/01 09:27:51;;;;;;;48.47;18.92;;;2.90;99.90;;;;;;4930730;29;20055;-71
2023/03/01 09:30:17;;;;;;;45.58;16.73;;;3.20;99.90;;;;;;4933486;29;20516;-71
2023/03/01 09:32:44;;;;;;;53.47;18.80;;;3.10;99.90;;;;;;4933545;29;20028;-74
2023/03/01 09:35:10;;;;;;;48.67;18.45;;;2.90;99.90;;;;;;4935346;29;20024;-72
2023/03/01 09:37:37;;;;;;;48.00;18.20;;;2.90;99.90;;;;;;4933427;29;20032;-72
2023/03/01 09:40:05;;;;;;;50.10;19.15;;;2.90;99.90;;;;;;4932461;29;20036;-72
2023/03/01 09:42:34;;;;;;;49.97;20.08;;;3.20;99.90;;;;;;4932209;29;20452;-71
2023/03/01 09:45:04;;;;;;;56.88;19.70;;;3.20;99.90;;;;;;4932811;29;20058;-72
2023/03/01 09:47:32;;;;;;;48.08;18.52;;;3.20;99.90;;;;;;4915241;29;20637;-72
2023/03/01 09:50:16;;;;;;;53.13;19.42;;;3.30;99.90;;;;;;4932066;29;20032;-71
2023/03/01 09:53:05;;;;;;;53.53;20.38;;;3.20;99.90;;;;;;4932862;29;20031;-72
2023/03/01 09:55:41;;;;;;;46.92;19.17;;;3.40;99.90;;;;;;4932381;29;20043;-72
2023/03/01 09:58:16;;;;;;;46.45;18.05;;;3.70;99.90;;;;;;4925639;29;20035;-72
2023/03/01 10:00:47;;;;;;;45.63;17.45;;;3.90;99.90;;;;;;4931459;29;20040;-71
2023/03/01 10:03:17;;;;;;;45.03;16.70;;;4.00;99.90;;;;;;4932677;29;20039;-71
2023/03/01 10:06:19;;;;;;;48.78;17.02;;;4.10;99.90;;;;;;4932949;29;20039;-71
2023/03/01 10:08:47;;;;;;;47.95;18.05;;;4.20;99.90;;;;;;4931740;29;20039;-73
2023/03/01 10:11:22;;;;;;;43.83;17.75;;;4.10;99.90;;;;;;4932438;29;20086;-74
2023/03/01 10:13:54;;;;;;;46.50;18.45;;;4.30;99.90;;;;;;4932296;29;20039;-75
2023/03/01 10:16:32;;;;;;;43.88;17.15;;;4.20;99.90;;;;;;4932798;29;20133;-74
2023/03/01 10:19:03;;;;;;;47.72;17.63;;;4.30;99.90;;;;;;4931957;29;20114;-74
2023/03/01 10:21:31;;;;;;;40.63;16.77;;;4.40;99.90;;;;;;4932685;29;20124;-74
2023/03/01 10:24:07;;;;;;;46.92;18.02;;;4.40;99.90;;;;;;4927318;29;20043;-74
2023/03/01 10:26:59;;;;;;;46.88;18.58;;;4.50;99.90;;;;;;4935315;29;20055;-74
2023/03/01 10:29:31;;;;;;;45.80;17.90;;;4.30;99.90;;;;;;4927236;29;20071;-75
2023/03/01 10:31:57;;;;;;;47.55;18.08;;;4.20;99.90;;;;;;4931008;29;20028;-74
2023/03/01 10:34:34;;;;;;;48.63;17.45;;;4.30;99.90;;;;;;4938748;29;20118;-74
2023/03/01 10:37:14;;;;;;;50.55;19.23;;;4.40;99.90;;;;;;4947467;29;20028;-73
2023/03/01 10:39:55;;;;;;;42.33;18.35;;;4.50;99.90;;;;;;4933421;29;20036;-74
2023/03/01 10:42:38;;;;;;;42.97;17.13;;;4.80;99.90;;;;;;4931706;29;20036;-74
2023/03/01 10:45:25;;;;;;;47.10;18.08;;;4.60;99.90;;;;;;4931357;29;20046;-74
2023/03/01 10:48:28;;;;;;;42.63;17.73;;;4.70;99.90;;;;;;4931669;29;20031;-76
2023/03/01 10:50:59;;;;;;;46.75;17.23;;;4.80;99.90;;;;;;4910011;29;20039;-74
2023/03/01 10:53:34;;;;;;;46.25;17.90;;;4.90;99.90;;;;;;4926962;29;20038;-74
2023/03/01 10:56:15;;;;;;;45.20;18.20;;;5.00;99.90;;;;;;4929747;29;20043;-75
2023/03/01 10:58:55;;;;;;;;;;;5.10;99.90;;;;;;4937913;29;20032;-74
2023/03/01 11:01:21;;;;;;;50.83;17.73;;;4.90;99.90;;;;;;4940110;29;20376;-74
2023/03/01 11:04:13;;;;;;;45.83;17.33;;;4.90;99.90;;;;;;4930231;29;20121;-72
2023/03/01 11:06:41;;;;;;;40.40;17.13;;;5.30;99.90;;;;;;4931920;29;20043;-72
2023/03/01 11:09:20;;;;;;;46.50;17.52;;;5.00;99.90;;;;;;4929721;29;20032;-73
2023/03/01 11:11:51;;;;;;;49.58;18.55;;;5.00;99.90;;;;;;4931808;29;20024;-73
2023/03/01 11:14:23;;;;;;;40.03;17.23;;;5.30;99.90;;;;;;4931391;29;20038;-73
2023/03/01 11:17:05;;;;;;;46.17;17.85;;;5.80;99.90;;;;;;4931810;29;20059;-73
2023/03/01 11:19:32;;;;;;;45.05;17.65;;;6.00;99.90;;;;;;4931637;29;20035;-73
2023/03/01 11:22:19;;;;;;;47.42;16.67;;;6.30;99.90;;;;;;4930867;29;20078;-73
2023/03/01 11:24:49;;;;;;;40.05;17.27;;;6.10;99.90;;;;;;4930633;29;20047;-74
2023/03/01 11:27:36;;;;;;;42.63;17.27;;;6.00;99.90;;;;;;4930508;29;20059;-73
2023/03/01 11:30:27;;;;;;;40.28;17.27;;;6.10;99.90;;;;;;4923473;29;20036;-72
2023/03/01 11:33:01;;;;;;;40.75;17.08;;;6.40;99.90;;;;;;4930883;29;20046;-76
2023/03/01 11:35:29;;;;;;;38.83;17.00;;;6.40;99.90;;;;;;4931504;29;20036;-72
2023/03/01 11:38:13;;;;;;;44.40;17.80;;;6.60;99.90;;;;;;4929955;29;20062;-76
2023/03/01 11:41:17;;;;;;;38.22;16.60;;;6.70;99.90;;;;;;4931555;29;20028;-72
2023/03/01 11:44:00;;;;;;;43.53;16.75;;;6.60;99.90;;;;;;4929850;29;20511;-72
2023/03/01 11:46:31;;;;;;;39.28;16.75;;;6.90;99.90;;;;;;4931307;29;20146;-71
2023/03/01 11:49:09;;;;;;;38.55;16.80;;;7.20;99.90;;;;;;4930306;29;20039;-73
2023/03/01 11:51:53;;;;;;;41.90;17.17;;;7.60;99.90;;;;;;4930770;29;20027;-72
2023/03/01 11:54:28;;;;;;;39.13;16.20;;;7.60;99.90;;;;;;4929065;29;20032;-72
2023/03/01 11:57:00;;;;;;;38.40;16.02;;;7.20;99.90;;;;;;4930818;29;20039;-76
2023/03/01 12:00:03;;;;;;;37.42;15.77;;;7.10;99.90;;;;;;4931125;29;20481;-73
2023/03/01 12:02:34;;;;;;;40.30;16.45;;;6.90;99.90;;;;;;4930261;29;20036;-73
2023/03/01 12:05:38;;;;;;;36.47;16.67;;;7.10;99.90;;;;;;4930423;29;20035;-72
2023/03/01 12:08:10;;;;;;;40.17;16.90;;;7.20;99.90;;;;;;4929379;29;20039;-73
2023/03/01 12:10:56;;;;;;;38.83;16.17;;;7.30;99.90;;;;;;4931069;29;20110;-72
2023/03/01 12:13:33;;;;;;;38.30;16.52;;;7.50;99.90;;;;;;4911958;29;20044;-72
2023/03/01 12:16:34;;;;;;;42.88;17.23;;;7.60;99.90;;;;;;4911527;29;20028;-73
2023/03/01 12:19:08;;;;;;;39.55;16.25;;;7.60;99.60;;;;;;4911266;29;20032;-73
2023/03/01 12:22:25;;;;;;;38.95;16.20;;;7.70;99.90;;;;;;4912141;29;20100;-73
2023/03/01 12:25:18;;;;;;;40.88;16.30;;;7.70;99.40;;;;;;4886924;29;20064;-73
2023/03/01 12:28:02;;;;;;;35.08;15.98;;;7.80;99.60;;;;;;4911951;29;20060;-73
2023/03/01 12:30:50;;;;;;;46.53;18.38;;;8.10;99.90;;;;;;4911925;29;20039;-73
2023/03/01 12:33:22;;;;;;;34.03;15.73;;;8.10;98.00;;;;;;4893904;29;20549;-73
2023/03/01 12:36:15;;;;;;;38.75;17.08;;;8.00;98.80;;;;;;4910430;29;20059;-73
2023/03/01 12:38:55;;;;;;;40.50;17.85;;;7.90;98.80;;;;;;4912059;29;20076;-73
2023/03/01 12:41:43;;;;;;;43.20;17.92;;;8.10;98.90;;;;;;4919310;29;20114;-73
2023/03/01 12:44:35;;;;;;;37.15;17.05;;;7.80;98.70;;;;;;4929971;29;20032;-72
2023/03/01 12:47:25;;;;;;;36.50;16.92;;;7.80;99.10;;;;;;4930074;29;20056;-72
2023/03/01 12:50:18;;;;;;;47.55;20.23;;;7.70;98.60;;;;;;4930864;29;20525;-73
2023/03/01 12:52:57;;;;;;;41.42;18.50;;;8.00;99.20;;;;;;4903454;29;20451;-73